This is the latest recevied weather packets stored in our database for station/object SP2WM. If no packets are shown the sender has not sent any weather packets the latest 10 day(s).
| Time | Temp. | Humidity | Pressure | Rain* | Wind** | Luminosity | Snow |
|---|---|---|---|---|---|---|---|
| 1777429224 | -1.67° C | 85% | 1024.8 hPa | 0 mm | - | - | - |
| 1777428622 | -1.67° C | 83% | 1024.8 hPa | 0 mm | - | - | - |
| 1777428021 | -1.67° C | 84% | 1024.7 hPa | 0 mm | - | - | - |
| 1777427425 | -1.11° C | 82% | 1024.6 hPa | 0 mm | - | - | - |
| 1777426825 | -1.11° C | 82% | 1024.6 hPa | 0 mm | - | - | - |
| 1777426225 | -1.11° C | 81% | 1024.6 hPa | 0 mm | - | - | - |
| 1777425625 | -0.56° C | 80% | 1024.6 hPa | 0 mm | - | - | - |
| 1777425028 | -0.56° C | 79% | 1024.6 hPa | 0 mm | - | - | - |
| 1777423833 | -0.56° C | 76% | 1024.7 hPa | 0 mm | - | - | - |
| 1777422024 | -0.56° C | 72% | 1024.9 hPa | 0 mm | - | - | - |
| 1777421422 | -0.56° C | 72% | 1024.8 hPa | 0 mm | - | - | - |
| 1777420824 | -1.11° C | 70% | 1024.8 hPa | 0 mm | - | - | - |
| 1777420230 | -1.11° C | 69% | 1024.8 hPa | 0 mm | - | - | - |
| 1777419629 | -0.56° C | 68% | 1024.8 hPa | 0 mm | - | - | - |
| 1777419068 | -0.56° C | 67% | 1024.8 hPa | 0 mm | - | - | - |
| 1777418441 | -0.56° C | 67% | 1024.7 hPa | 0 mm | - | - | - |
| 1777417838 | -0.56° C | 66% | 1024.6 hPa | 0 mm | - | - | - |
| 1777417221 | 0° C | 66% | 1024.6 hPa | 0 mm | - | - | - |
| 1777416641 | 0° C | 65% | 1024.5 hPa | 0 mm | - | - | - |
| 1777416040 | 0° C | 65% | 1024.5 hPa | 0 mm | - | - | - |
| 1777415440 | 0.56° C | 64% | 1024.4 hPa | 0 mm | - | - | - |
| 1777414839 | 0.56° C | 64% | 1024.4 hPa | 0 mm | - | - | - |
| 1777414220 | 0.56° C | 63% | 1024.3 hPa | 0 mm | - | - | - |
| 1777413640 | 1.11° C | 63% | 1024.1 hPa | 0 mm | - | - | - |
| 1777413040 | 1.11° C | 63% | 1023.9 hPa | 0 mm | - | - | - |
* Rain latest hour (hover to see other rain measurements)
** Current wind speed in m/s (hover to see current wind gust speed)